Time;durP1;ratioP1;P1;durP2;ratioP2;P2;SDS_P1;SDS_P2;PMS_P1;PMS_P2;Temp;Humidity;BMP_temperature;BMP_pressure;BME280_temperature;BME280_humidity;BME280_pressure;Samples;Min_cycle;Max_cycle;Signal;HPM_P1;HPM_P2
2022/12/28 00:01:22;;;;;;;;;;;;;;;3.55;100.00;99875.05;1721223;82;21558;-65
2022/12/28 00:03:49;;;;;;;3.00;1.52;;;;;;;3.55;100.00;99883.70;1721147;82;21761;-65
2022/12/28 00:06:16;;;;;;;2.17;1.32;;;;;;;3.52;100.00;99888.92;1723288;82;21427;-63
2022/12/28 00:08:43;;;;;;;2.25;1.37;;;;;;;3.48;100.00;99888.53;1719299;82;21514;-62
2022/12/28 00:11:15;;;;;;;2.10;1.50;;;;;;;3.49;100.00;99901.97;1720724;82;21534;-62
2022/12/28 00:13:42;;;;;;;3.30;1.57;;;;;;;3.41;100.00;99907.25;1722576;82;21536;-62
2022/12/28 00:16:21;;;;;;;4.58;1.77;;;;;;;3.38;100.00;99912.46;1708321;82;21955;-65
2022/12/28 00:18:48;;;;;;;2.00;1.40;;;;;;;3.39;100.00;99909.41;1725044;82;21510;-63
2022/12/28 00:21:17;;;;;;;4.08;2.02;;;;;;;3.36;100.00;99908.16;1722536;82;21572;-64
2022/12/28 00:23:43;;;;;;;4.80;1.70;;;;;;;3.31;100.00;99915.98;1724406;82;21584;-64
2022/12/28 00:26:11;;;;;;;3.58;1.60;;;;;;;3.24;100.00;99920.39;1716467;82;21541;-62
2022/12/28 00:28:40;;;;;;;5.40;1.80;;;;;;;3.30;100.00;99916.87;1727332;82;21821;-65
2022/12/28 00:31:06;;;;;;;2.40;1.42;;;;;;;3.33;100.00;99920.73;1669915;84;21681;-64
2022/12/28 00:33:33;;;;;;;4.60;1.85;;;;;;;3.37;100.00;99909.87;1728603;82;21534;-64
2022/12/28 00:36:01;;;;;;;5.22;1.80;;;;;;;3.33;100.00;99922.03;1728363;82;21533;-64
2022/12/28 00:38:30;;;;;;;;;;;;;;;3.36;100.00;99924.61;1684122;84;21562;-64
2022/12/28 00:40:57;;;;;;;2.62;1.45;;;;;;;3.30;100.00;99919.03;1727341;82;22000;-64
2022/12/28 00:43:25;;;;;;;3.95;1.60;;;;;;;3.39;100.00;99917.21;1716114;82;21470;-63
2022/12/28 00:45:52;;;;;;;3.83;2.00;;;;;;;3.40;100.00;99921.55;1725507;82;21431;-64
2022/12/28 00:48:19;;;;;;;3.30;1.80;;;;;;;3.42;100.00;99917.20;1729198;82;21532;-67
2022/12/28 00:50:46;;;;;;;2.52;1.32;;;;;;;3.42;100.00;99921.95;1719530;82;21414;-62
2022/12/28 00:53:12;;;;;;;2.98;1.52;;;;;;;3.43;100.00;99922.84;1720945;82;21854;-62
2022/12/28 00:55:40;;;;;;;4.25;1.82;;;;;;;3.35;100.00;99921.58;1724828;82;21619;-65
2022/12/28 00:58:07;;;;;;;4.97;1.70;;;;;;;3.37;100.00;99930.25;1727869;82;21525;-64
2022/12/28 01:00:35;;;;;;;3.83;2.05;;;;;;;3.36;100.00;99927.66;1767499;80;21487;-64
2022/12/28 01:03:03;;;;;;;2.72;1.75;;;;;;;3.35;100.00;99939.77;1697792;83;21938;-64
2022/12/28 01:05:31;;;;;;;4.28;2.72;;;;;;;3.39;100.00;99938.01;1765539;80;21885;-63
2022/12/28 01:07:57;;;;;;;3.77;1.72;;;;;;;3.36;100.00;99944.55;1768069;80;21635;-63
2022/12/28 01:10:25;;;;;;;3.52;1.75;;;;;;;3.43;100.00;99943.62;1752542;80;21592;-63
2022/12/28 01:12:53;;;;;;;3.77;1.90;;;;;;;3.45;100.00;99938.83;1768728;80;21437;-63
2022/12/28 01:15:19;;;;;;;;;;;;;;;3.43;100.00;99935.83;1769888;80;21537;-65
2022/12/28 01:17:46;;;;;;;6.97;1.90;;;;;;;3.41;100.00;99937.55;1764904;80;21811;-66
2022/12/28 01:20:13;;;;;;;2.80;1.40;;;;;;;3.48;100.00;99938.81;1770716;80;21475;-67
2022/12/28 01:22:40;;;;;;;4.20;1.70;;;;;;;3.56;100.00;99938.73;1770959;80;21612;-65
2022/12/28 01:25:07;;;;;;;5.58;1.80;;;;;;;3.61;100.00;99933.03;1773174;80;20962;-63
2022/12/28 01:27:36;;;;;;;4.30;1.67;;;;;;;3.62;100.00;99930.02;1758737;80;21502;-65
2022/12/28 01:30:04;;;;;;;4.83;2.00;;;;;;;3.62;100.00;99939.97;1770176;80;21930;-65
2022/12/28 01:32:32;;;;;;;2.00;1.60;;;;;;;3.61;100.00;99943.44;1761793;80;21641;-66
2022/12/28 01:34:59;;;;;;;1.90;1.55;;;;;;;3.64;100.00;99936.91;1759616;80;21539;-65
2022/12/28 01:37:25;;;;;;;3.17;1.90;;;;;;;3.62;100.00;99938.67;1749478;80;21490;-64
2022/12/28 01:39:52;;;;;;;4.08;2.12;;;;;;;3.63;100.00;99933.88;1763655;80;21468;-64
2022/12/28 01:42:19;;;;;;;4.78;2.20;;;;;;;3.60;100.00;99927.84;1759541;80;22003;-62
2022/12/28 01:44:48;;;;;;;3.67;1.82;;;;;;;3.64;100.00;99929.56;1698578;83;21443;-65
2022/12/28 01:47:24;;;;;;;4.20;2.02;;;;;;;3.62;100.00;99931.31;1764018;80;21522;-64
2022/12/28 01:50:02;;;;;;;3.70;2.00;;;;;;;3.66;100.00;99923.91;1760427;80;21462;-65
2022/12/28 01:52:46;;;;;;;3.20;2.17;;;;;;;3.74;100.00;99927.27;1754657;80;21528;-64
2022/12/28 01:55:22;;;;;;;4.53;1.98;;;;;;;3.76;100.00;99929.87;1763853;80;21892;-64
2022/12/28 01:58:05;;;;;;;3.85;2.02;;;;;;;3.73;100.00;99931.19;1759882;80;21447;-66
2022/12/28 02:00:32;;;;;;;3.50;2.02;;;;;;;3.79;100.00;99932.00;1764665;80;21221;-66
2022/12/28 02:03:06;;;;;;;3.92;2.17;;;;;;;3.77;100.00;99923.36;1757786;80;21474;-67
2022/12/28 02:05:40;;;;;;;4.33;1.50;;;;;;;3.82;100.00;99929.80;1753031;80;21552;-62
2022/12/28 02:08:24;;;;;;;5.47;2.33;;;;;;;3.78;100.00;99928.96;1748278;80;21981;-65
2022/12/28 02:10:52;;;;;;;4.62;2.17;;;;;;;3.84;100.00;99928.03;1752803;80;21478;-62
2022/12/28 02:13:19;;;;;;;3.10;2.00;;;;;;;3.77;100.00;99929.86;1749046;80;21492;-64
2022/12/28 02:15:46;;;;;;;2.77;2.10;;;;;;;3.82;100.00;99933.25;1743849;80;21510;-63
2022/12/28 02:18:14;;;;;;;3.67;1.57;;;;;;;3.78;100.00;99934.16;1750255;80;21534;-64
2022/12/28 02:21:20;;;;;;;4.87;2.30;;;;;;;3.81;100.00;99928.94;1755576;80;21763;-64
2022/12/28 02:24:29;;;;;;;6.65;2.12;;;;;;;3.82;100.00;99937.15;1756087;80;21526;-64
2022/12/28 02:27:04;;;;;;;2.92;2.12;;;;;;;3.82;100.00;99933.25;1703794;82;21143;-64
2022/12/28 02:29:48;;;;;;;4.40;2.37;;;;;;;3.79;100.00;99931.15;1746014;80;21503;-62
2022/12/28 02:32:47;;;;;;;6.05;1.80;;;;;;;3.81;100.00;99937.19;1747973;80;21494;-61
2022/12/28 02:35:46;;;;;;;3.47;1.80;;;;;;;3.83;100.00;99937.59;1754123;80;21806;-63
2022/12/28 02:38:49;;;;;;;3.30;1.92;;;;;;;3.87;100.00;99945.77;1754969;80;21446;-62
2022/12/28 02:41:20;;;;;;;3.52;2.45;;;;;;;3.80;100.00;99943.25;1755163;80;21606;-62
2022/12/28 02:43:46;;;;;;;6.00;2.20;;;;;;;3.77;100.00;99949.36;1747265;80;21477;-64
2022/12/28 02:52:57;;;;;;;3.65;2.30;;;;;;;3.76;100.00;99952.83;1751656;80;21519;-63
2022/12/28 02:56:07;;;;;;;4.72;2.35;;;;;;;3.80;100.00;99952.36;1752148;80;21533;-63
2022/12/28 02:59:10;;;;;;;3.85;2.30;;;;;;;3.82;100.00;99949.30;1752560;80;21471;-64
2022/12/28 03:02:12;;;;;;;8.25;2.85;;;;;;;3.80;100.00;99960.16;1743240;80;21494;-64
2022/12/28 03:05:00;;;;;;;3.05;2.00;;;;;;;3.79;100.00;99956.70;1747482;80;21796;-65
2022/12/28 03:10:52;;;;;;;4.30;2.12;;;;;;;3.74;100.00;99967.59;1668653;84;21549;-62
2022/12/28 03:13:42;;;;;;;3.05;2.02;;;;;;;3.81;100.00;99969.70;1735952;80;20993;-65
2022/12/28 03:16:22;;;;;;;2.85;1.95;;;;;;;3.83;100.00;99970.10;1744007;80;21732;-62
2022/12/28 03:32:58;;;;;;;3.37;1.98;;;;;;;3.88;100.00;99990.44;1742171;80;21553;-65
2022/12/28 03:35:36;;;;;;;2.98;1.92;;;;;;;3.97;100.00;99988.16;1751573;80;21503;-64
2022/12/28 03:38:03;;;;;;;2.90;2.30;;;;;;;3.99;100.00;99990.75;1742267;80;21550;-61
2022/12/28 03:40:44;;;;;;;2.92;2.00;;;;;;;3.97;100.00;99978.20;1748959;80;20994;-62
2022/12/28 03:43:44;;;;;;;3.30;2.12;;;;;;;3.97;100.00;99978.20;1741861;80;21550;-61
2022/12/28 03:46:22;;;;;;;2.70;2.00;;;;;;;3.98;100.00;99982.55;1757273;80;21881;-63
2022/12/28 03:48:49;;;;;;;3.77;2.10;;;;;;;3.95;100.00;99983.41;1750114;80;21033;-62
2022/12/28 03:51:19;;;;;;;2.10;1.92;;;;;;;4.00;100.00;99984.23;1747208;80;21573;-64
2022/12/28 03:53:47;;;;;;;3.52;2.33;;;;;;;3.93;100.00;99984.32;1745809;80;21501;-63
2022/12/28 03:56:17;;;;;;;4.08;2.22;;;;;;;3.95;100.00;99992.97;1749419;80;21629;-61
2022/12/28 03:58:45;;;;;;;5.60;2.30;;;;;;;3.90;100.00;99992.58;1752331;80;21933;-64
2022/12/28 04:01:14;;;;;;;3.12;2.00;;;;;;;4.00;100.00;100000.30;1749481;80;21672;-62
2022/12/28 04:04:44;;;;;;;3.90;1.95;;;;;;;3.53;100.00;99988.60;1841121;75;23121;-65
2022/12/28 04:07:10;;;;;;;2.47;1.90;;;;;;;3.69;100.00;100004.47;1833286;75;21450;-63
2022/12/28 04:09:37;;;;;;;4.05;2.08;;;;;;;3.76;100.00;99999.64;1839658;76;21833;-64
2022/12/28 04:12:05;;;;;;;2.95;1.80;;;;;;;3.78;100.00;100000.94;1846219;75;21569;-62
2022/12/28 04:14:46;;;;;;;3.70;1.98;;;;;;;3.82;100.00;100000.88;1838375;75;21613;-63
2022/12/28 04:17:12;;;;;;;2.55;1.92;;;;;;;3.77;100.00;100005.28;1845941;75;21475;-63
2022/12/28 04:19:39;;;;;;;3.33;1.90;;;;;;;3.74;100.00;100006.60;1843669;77;21479;-61
2022/12/28 04:22:06;;;;;;;2.27;2.07;;;;;;;3.74;100.00;100005.30;1835938;75;21913;-64
2022/12/28 04:24:34;;;;;;;3.72;2.27;;;;;;;3.73;100.00;100007.50;1816442;77;20995;-65
2022/12/28 04:27:01;;;;;;;2.62;2.00;;;;;;;3.73;100.00;100007.91;1834719;75;21499;-62
2022/12/28 04:29:27;;;;;;;2.58;2.12;;;;;;;3.77;100.00;100007.89;1840637;75;21041;-64
2022/12/28 04:31:56;;;;;;;3.87;2.17;;;;;;;3.76;100.00;100011.34;1830194;75;21547;-61
2022/12/28 04:34:23;;;;;;;4.30;2.03;;;;;;;3.79;100.00;100021.73;1838656;75;21880;-63
2022/12/28 04:37:00;;;;;;;;;;;;;;;3.86;100.00;100018.21;1846739;75;21479;-62
2022/12/28 04:39:27;;;;;;;1.85;1.65;;;;;;;3.86;100.00;100019.51;1843826;75;20164;-61
2022/12/28 04:41:54;;;;;;;2.85;1.85;;;;;;;3.80;100.00;100019.98;1834071;77;21474;-64
2022/12/28 04:44:22;;;;;;;3.83;1.85;;;;;;;3.86;100.00;100026.02;1845780;77;21516;-63
2022/12/28 04:46:49;;;;;;;2.77;1.90;;;;;;;3.88;100.00;100035.97;1833559;75;22083;-62
2022/12/28 04:49:15;;;;;;;2.98;1.77;;;;;;;3.87;100.00;100038.58;1841444;77;21775;-62
2022/12/28 04:51:44;;;;;;;3.47;1.90;;;;;;;3.84;100.00;100040.77;1846379;75;21491;-62
2022/12/28 04:54:13;;;;;;;5.25;1.98;;;;;;;3.82;100.00;100043.80;1844992;75;21491;-65
2022/12/28 04:56:40;;;;;;;2.95;2.02;;;;;;;3.80;100.00;100040.35;1838148;77;21052;-63
2022/12/28 06:18:04;;;;;;;2.30;1.95;;;;;;;0.89;100.00;100132.28;1772230;78;22630;-61
2022/12/28 06:20:31;;;;;;;4.28;2.12;;;;;;;1.43;100.00;100167.02;1736268;80;21506;-60
2022/12/28 06:22:57;;;;;;;4.08;3.12;;;;;;;1.68;100.00;100177.44;1726353;80;21577;-61
2022/12/28 06:25:25;;;;;;;3.47;2.47;;;;;;;1.87;100.00;100177.03;1729959;81;21050;-62
2022/12/28 06:27:52;;;;;;;4.53;2.85;;;;;;;2.05;100.00;100173.57;1737416;81;21566;-61
2022/12/28 06:30:18;;;;;;;3.90;2.60;;;;;;;2.22;100.00;100177.02;1721981;81;21462;-59
2022/12/28 06:32:45;;;;;;;5.80;2.40;;;;;;;2.40;100.00;100179.20;1728334;81;21533;-59
2022/12/28 06:35:11;;;;;;;4.58;2.30;;;;;;;2.50;100.00;100181.76;1734264;80;21482;-58
2022/12/28 06:37:38;;;;;;;5.30;2.83;;;;;;;2.61;100.00;100183.49;1728940;80;21522;-58
2022/12/28 06:40:07;;;;;;;6.20;3.20;;;;;;;2.67;100.00;100184.33;1727320;80;21077;-60
2022/12/28 06:42:33;;;;;;;;;;;;;;;2.75;100.00;100180.86;1732865;81;22257;-60
2022/12/28 06:45:00;;;;;;;4.90;2.80;;;;;;;2.81;100.00;100176.97;1737997;81;20420;-59
2022/12/28 06:47:27;;;;;;;3.83;2.75;;;;;;;2.90;100.00;100184.30;1728358;81;21817;-59
2022/12/28 06:49:54;;;;;;;5.15;2.92;;;;;;;2.96;100.00;100191.61;1740101;80;21553;-60
2022/12/28 06:52:21;;;;;;;6.12;3.40;;;;;;;3.03;100.00;100182.94;1742974;81;21701;-60
2022/12/28 06:54:48;;;;;;;4.55;3.35;;;;;;;3.07;100.00;100184.66;1737000;81;21482;-60
2022/12/28 06:57:14;;;;;;;3.45;3.08;;;;;;;3.09;100.00;100189.44;1729400;80;21594;-59
2022/12/28 06:59:41;;;;;;;3.77;2.90;;;;;;;3.14;100.00;100193.30;1742279;81;21899;-60
2022/12/28 07:02:08;;;;;;;5.53;2.90;;;;;;;3.16;100.00;100189.81;1732816;81;21502;-59
2022/12/28 07:04:35;;;;;;;3.87;2.70;;;;;;;3.21;100.00;100202.37;1740041;81;21653;-59
2022/12/28 07:07:02;;;;;;;4.15;2.92;;;;;;;3.27;100.00;100196.28;1732388;81;21624;-62
2022/12/28 07:09:29;;;;;;;4.83;3.12;;;;;;;3.30;100.00;100194.98;1737647;80;21651;-62
2022/12/28 07:11:55;;;;;;;3.00;2.40;;;;;;;3.30;100.00;100194.98;1736184;81;21545;-61
2022/12/28 07:14:22;;;;;;;4.70;2.65;;;;;;;3.33;100.00;100198.84;1734676;80;21564;-60
2022/12/28 07:16:50;;;;;;;4.12;2.42;;;;;;;3.34;100.00;100202.33;1735250;81;21529;-61
2022/12/28 07:19:17;;;;;;;6.05;2.80;;;;;;;3.40;100.00;100208.34;1727500;81;21509;-61
2022/12/28 07:21:43;;;;;;;3.25;2.22;;;;;;;3.41;100.00;100205.30;1728567;81;21471;-62
2022/12/28 07:24:10;;;;;;;4.10;2.87;;;;;;;3.42;100.00;100204.45;1739611;80;21812;-61
2022/12/28 07:26:37;;;;;;;2.60;2.40;;;;;;;3.41;100.00;100202.30;1732211;80;21493;-61
2022/12/28 07:29:05;;;;;;;4.60;2.70;;;;;;;3.39;100.00;100202.73;1738908;80;21518;-62
2022/12/28 07:31:35;;;;;;;4.72;2.47;;;;;;;3.36;100.00;100202.74;1740895;80;21025;-61
2022/12/28 07:34:02;;;;;;;3.72;2.40;;;;;;;3.41;100.00;100206.19;1737711;80;21574;-61
2022/12/28 07:36:30;;;;;;;4.83;2.40;;;;;;;3.44;100.00;100200.11;1732975;80;21817;-62
2022/12/28 07:38:57;;;;;;;5.85;2.90;;;;;;;3.43;100.00;100195.34;1732054;80;21604;-61
2022/12/28 07:41:26;;;;;;;6.50;3.17;;;;;;;3.53;100.00;100205.70;1737476;80;21498;-61
2022/12/28 07:43:53;;;;;;;4.80;2.92;;;;;;;3.55;100.00;100199.61;1736827;80;21722;-61
2022/12/28 07:46:23;;;;;;;3.37;2.70;;;;;;;3.57;100.00;100193.97;1725283;80;21481;-64
2022/12/28 07:48:50;;;;;;;3.75;2.33;;;;;;;3.64;100.00;100202.61;1730282;81;22214;-61
2022/12/28 07:51:27;;;;;;;7.03;2.60;;;;;;;3.72;100.00;100198.66;1732083;80;21414;-65
2022/12/28 07:53:55;;;;;;;4.33;2.50;;;;;;;3.75;100.00;100197.33;1733216;80;21557;-59
2022/12/28 08:10:16;;;;;;;5.00;2.37;;;;;;;3.89;100.00;100218.48;1734613;81;21526;-62
2022/12/28 08:12:43;;;;;;;4.83;2.52;;;;;;;3.99;100.00;100211.92;1727417;81;21567;-62
2022/12/28 08:15:10;;;;;;;3.17;2.15;;;;;;;3.96;100.00;100210.66;1729642;81;21577;-61
2022/12/28 08:17:37;;;;;;;3.17;2.20;;;;;;;3.99;100.00;100204.97;1764683;78;21814;-62
2022/12/28 08:20:05;;;;;;;3.70;2.23;;;;;;;4.08;100.00;100204.91;1771978;80;21540;-62
2022/12/28 08:22:32;;;;;;;5.97;2.35;;;;;;;4.12;100.00;100211.41;1764215;78;21084;-61
2022/12/28 08:24:59;;;;;;;;;;;;;;;4.20;100.00;100207.88;1737361;80;21467;-61
2022/12/28 08:27:26;;;;;;;3.90;2.30;;;;;;;4.15;100.00;100208.79;1775948;78;20461;-62
2022/12/28 08:29:53;;;;;;;3.92;2.05;;;;;;;4.25;100.00;100216.48;1773383;78;21865;-62
2022/12/28 08:32:20;;;;;;;4.28;2.72;;;;;;;4.32;100.00;100218.62;1766216;78;21569;-62
2022/12/28 08:34:46;;;;;;;4.20;2.22;;;;;;;4.36;100.00;100220.32;1764320;78;21610;-61
2022/12/28 08:37:15;;;;;;;3.70;2.10;;;;;;;4.44;100.00;100226.31;1763318;78;21477;-61
2022/12/28 08:39:41;;;;;;;4.95;2.22;;;;;;;4.47;100.00;100208.52;1760377;80;21576;-62
2022/12/28 08:42:08;;;;;;;2.67;1.95;;;;;;;4.52;100.00;100214.97;1767733;78;22259;-62
2022/12/28 08:44:35;;;;;;;4.23;2.60;;;;;;;4.58;100.00;100207.98;1759769;80;21013;-61
2022/12/28 08:47:02;;;;;;;3.55;2.30;;;;;;;4.65;100.00;100219.19;1763627;78;21588;-60
2022/12/28 08:49:28;;;;;;;5.47;2.52;;;;;;;4.73;100.00;100216.51;1738182;81;21527;-60
2022/12/28 08:51:55;;;;;;;3.95;2.65;;;;;;;4.80;100.00;100215.16;1730361;81;21553;-62
2022/12/28 08:54:22;;;;;;;3.40;2.40;;;;;;;4.87;100.00;100218.55;1738364;81;21538;-60
2022/12/28 08:56:49;;;;;;;7.50;2.70;;;;;;;4.88;100.00;100207.27;1734741;81;22320;-62
2022/12/28 08:59:17;;;;;;;4.67;2.70;;;;;;;4.86;100.00;100219.45;1735091;81;21677;-60
2022/12/28 09:01:45;;;;;;;4.60;2.27;;;;;;;4.86;100.00;100216.39;1738191;81;21608;-61
2022/12/28 09:04:20;;;;;;;3.50;2.35;;;;;;;4.91;100.00;100216.33;1741713;81;21645;-61
2022/12/28 09:06:47;;;;;;;5.62;2.62;;;;;;;4.99;100.00;100223.65;1736492;81;21804;-60
2022/12/28 09:09:16;;;;;;;5.08;2.30;;;;;;;5.03;100.00;100221.43;1742501;80;21650;-61
2022/12/28 09:11:43;;;;;;;5.37;2.52;;;;;;;5.06;100.00;100225.28;1765548;79;21519;-60
2022/12/28 09:14:11;;;;;;;6.53;3.00;;;;;;;5.11;100.00;100224.39;1768663;78;21474;-60
2022/12/28 09:16:38;;;;;;;6.37;2.72;;;;;;;5.15;100.00;100219.11;1764502;79;21572;-60
2022/12/28 09:19:07;;;;;;;4.00;2.87;;;;;;;5.14;100.00;100218.71;1762448;79;21658;-60
2022/12/28 09:21:36;;;;;;;5.75;2.92;;;;;;;5.19;100.00;100218.19;1759969;80;21489;-60
2022/12/28 09:24:04;;;;;;;3.98;2.75;;;;;;;5.23;100.00;100214.66;1766085;79;20950;-60
2022/12/28 09:26:34;;;;;;;5.35;3.25;;;;;;;5.33;100.00;100221.08;1763645;79;21120;-60
2022/12/28 09:29:03;;;;;;;5.08;3.20;;;;;;;5.29;100.00;100219.39;1763385;79;20929;-60
2022/12/28 09:31:32;;;;;;;7.00;2.83;;;;;;;5.34;100.00;100222.37;1746152;80;22004;-61
2022/12/28 09:34:02;;;;;;;3.52;2.62;;;;;;;5.37;100.00;100221.45;1762817;78;21517;-60
2022/12/28 09:36:40;;;;;;;4.75;2.30;;;;;;;5.40;100.00;100215.77;1765742;78;21600;-59
2022/12/28 09:39:12;;;;;;;3.98;2.37;;;;;;;5.45;100.00;100217.88;1762031;78;21421;-62
2022/12/28 09:42:09;;;;;;;4.95;2.17;;;;;;;5.44;100.00;100208.77;1761390;79;21545;-59
2022/12/28 09:44:45;;;;;;;;;;;;;;;5.52;100.00;100214.77;1759902;80;21894;-59
2022/12/28 09:47:45;;;;;;;3.55;1.62;;;;;;;5.54;100.00;100213.42;1765975;79;20453;-59
2022/12/28 09:50:24;;;;;;;3.50;2.30;;;;;;;5.70;100.00;100224.53;1766881;78;21552;-59
2022/12/28 09:53:18;;;;;;;5.87;2.35;;;;;;;5.81;100.00;100222.63;1761011;78;21510;-59
2022/12/28 09:56:07;;;;;;;4.00;1.98;;;;;;;5.76;100.00;100218.77;1767585;78;21409;-59
2022/12/28 09:58:37;;;;;;;3.72;1.98;;;;;;;6.00;100.00;100230.64;1762634;78;21796;-63
2022/12/28 10:01:04;;;;;;;6.30;2.40;;;;;;;6.11;100.00;100234.86;1739292;80;21545;-61
2022/12/28 10:03:39;;;;;;;6.28;2.62;;;;;;;6.12;100.00;100223.52;1720757;80;21623;-61
2022/12/28 10:06:13;;;;;;;7.45;3.10;;;;;;;6.14;100.00;100231.77;1736405;81;21462;-60
2022/12/28 10:08:54;;;;;;;3.50;2.30;;;;;;;6.39;100.00;100236.14;1761671;78;20942;-61
2022/12/28 10:11:30;;;;;;;4.00;2.30;;;;;;;6.70;100.00;100238.23;1761009;80;21674;-62
2022/12/28 10:14:00;;;;;;;3.97;1.90;;;;;;;6.93;100.00;100223.89;1758514;80;21415;-61
2022/12/28 10:16:31;;;;;;;6.35;2.17;;;;;;;7.79;100.00;100233.92;1766793;80;20997;-62
2022/12/28 10:18:57;;;;;;;3.83;2.00;;;;;;;8.03;100.00;100217.27;1758378;80;21467;-62
2022/12/28 10:21:27;;;;;;;3.40;1.65;;;;;;;8.58;100.00;100214.63;1760028;80;21553;-61
2022/12/28 10:23:55;;;;;;;4.30;1.90;;;;;;;9.31;100.00;100205.23;1748947;80;21969;-61
2022/12/28 10:26:22;;;;;;;3.15;1.60;;;;;;;9.82;100.00;100202.87;1750944;80;21403;-62
2022/12/28 10:28:53;;;;;;;1.73;1.30;;;;;;;10.30;100.00;100203.52;1766763;80;21608;-64
2022/12/28 10:38:29;;;;;;;4.28;1.85;;;;;;;7.90;100.00;100209.67;1849297;74;26769;-60
2022/12/28 10:41:06;;;;;;;2.52;1.55;;;;;;;7.73;100.00;100206.58;1846743;75;20950;-58
2022/12/28 10:43:35;;;;;;;2.08;1.30;;;;;;;7.83;100.00;100226.41;1807529;75;21816;-57
2022/12/28 10:46:05;;;;;;;2.90;1.30;;;;;;;7.53;100.00;100218.78;1821670;75;21556;-57
2022/12/28 10:48:35;;;;;;;2.45;1.27;;;;;;;7.71;100.00;100220.16;1816241;77;21494;-58
2022/12/28 10:51:15;;;;;;;1.92;1.10;;;;;;;7.50;100.00;100211.02;1803695;76;21605;-56
2022/12/28 10:53:45;;;;;;;3.98;1.55;;;;;;;7.13;100.00;100218.29;1795244;76;20995;-56
2022/12/28 10:56:21;;;;;;;2.42;1.30;;;;;;;7.01;100.00;100222.86;1810295;77;21874;-57
2022/12/28 10:58:49;;;;;;;4.37;1.37;;;;;;;7.14;100.00;100226.53;1800108;77;21515;-56
2022/12/28 11:01:20;;;;;;;1.85;1.30;;;;;;;7.53;100.00;100231.41;1796543;75;21546;-57
2022/12/28 11:04:01;;;;;;;2.55;1.35;;;;;;;7.92;100.00;100220.13;1806112;76;21464;-56
2022/12/28 11:06:34;;;;;;;2.85;1.75;;;;;;;7.83;100.00;100221.63;1797363;77;21490;-54
2022/12/28 11:09:25;;;;;;;5.80;1.30;;;;;;;7.41;100.00;100207.67;1811890;77;21769;-54
2022/12/28 11:11:54;;;;;;;5.33;1.77;;;;;;;7.20;100.00;100213.36;1833855;75;21438;-54
2022/12/28 11:14:32;;;;;;;4.80;2.10;;;;;;;6.80;100.00;100223.27;1830017;75;21391;-56
2022/12/28 11:17:18;;;;;;;4.58;2.40;;;;;;;6.59;100.00;100224.07;1784589;77;21435;-55
2022/12/28 11:19:48;;;;;;;4.00;1.98;;;;;;;6.31;100.00;100238.45;1800632;76;21366;-56
2022/12/28 11:22:26;;;;;;;4.25;1.90;;;;;;;5.95;100.00;100234.17;1835413;75;21455;-55
2022/12/28 11:24:52;;;;;;;3.83;1.85;;;;;;;5.77;100.00;100239.22;1822063;76;28848;-57
2022/12/28 11:27:21;;;;;;;5.93;2.20;;;;;;;5.66;100.00;100241.97;1820170;76;21034;-56
2022/12/28 11:29:50;;;;;;;4.83;2.20;;;;;;;5.55;100.00;100256.89;1817096;76;21554;-57
2022/12/28 11:32:51;;;;;;;4.72;2.20;;;;;;;5.41;100.00;100249.25;1783211;73;21637;-62
2022/12/28 14:58:56;;;;;;;5.05;3.20;;;;;;;1.34;100.00;100387.23;1775879;78;23155;-67
2022/12/28 15:01:23;;;;;;;6.55;3.70;;;;;;;1.77;100.00;100407.33;1731593;80;21590;-65
2022/12/28 15:04:01;;;;;;;4.45;3.55;;;;;;;1.97;100.00;100414.78;1741513;81;21826;-62
2022/12/28 15:06:29;;;;;;;4.33;3.58;;;;;;;2.09;100.00;100415.26;1696256;82;21036;-68
2022/12/28 15:08:57;;;;;;;6.53;3.80;;;;;;;2.17;100.00;100411.39;1707140;83;20978;-66
2022/12/28 15:11:26;;;;;;;7.03;4.03;;;;;;;2.27;100.00;100409.28;1707617;83;21477;-65
2022/12/28 15:13:53;;;;;;;7.72;4.12;;;;;;;2.37;100.00;100406.28;1696263;83;21489;-68
2022/12/28 15:16:23;;;;;;;6.17;3.77;;;;;;;2.47;100.00;100410.22;1702289;83;21893;-66
2022/12/28 15:18:51;;;;;;;5.60;3.77;;;;;;;2.57;100.00;100405.90;1690259;83;21556;-67
2022/12/28 15:21:21;;;;;;;7.50;4.45;;;;;;;2.68;100.00;100412.42;1691303;83;22128;-68
2022/12/28 15:23:50;;;;;;;5.10;4.33;;;;;;;2.71;100.00;100399.02;1691200;82;20972;-68
2022/12/28 15:26:17;;;;;;;6.17;4.10;;;;;;;2.72;100.00;100395.97;1710600;81;21654;-65
2022/12/28 15:28:43;;;;;;;6.33;4.03;;;;;;;2.77;100.00;100406.36;1704520;83;21837;-70
2022/12/28 15:31:12;;;;;;;4.92;3.70;;;;;;;2.77;100.00;100398.16;1686517;83;21503;-68
2022/12/28 15:33:39;;;;;;;6.22;4.12;;;;;;;2.81;100.00;100401.62;1682516;83;21549;-68
2022/12/28 15:36:17;;;;;;;5.92;3.80;;;;;;;2.86;100.00;100404.66;1711278;81;21553;-64
2022/12/28 15:38:45;;;;;;;6.97;3.92;;;;;;;2.84;100.00;100414.16;1695352;83;21498;-65
2022/12/28 15:43:58;;;;;;;7.03;4.43;;;;;;;2.83;100.00;100415.03;1687559;83;21613;-70
2022/12/28 15:46:25;;;;;;;6.12;4.08;;;;;;;2.79;100.00;100409.81;1686752;83;21787;-65
2022/12/28 15:48:52;;;;;;;5.70;4.05;;;;;;;2.79;100.00;100404.22;1710694;81;21576;-67
2022/12/28 15:51:18;;;;;;;6.62;4.30;;;;;;;2.81;100.00;100408.12;1696383;83;21538;-66
2022/12/28 15:53:45;;;;;;;7.30;4.15;;;;;;;2.80;100.00;100404.62;1695514;82;21926;-66
2022/12/28 15:56:25;;;;;;;4.85;4.03;;;;;;;2.76;100.00;100401.60;1710091;82;21688;-69
2022/12/28 15:58:53;;;;;;;6.28;4.20;;;;;;;2.75;100.00;100399.89;1689234;82;21514;-65
2022/12/28 16:01:20;;;;;;;;;;;;;;;2.68;100.00;100397.70;1698365;82;21941;-67
2022/12/28 16:03:54;;;;;;;5.28;3.95;;;;;;;2.55;100.00;100401.58;1696162;82;20446;-67
2022/12/28 16:06:21;;;;;;;5.58;4.05;;;;;;;2.52;100.00;100401.12;1698559;82;21990;-65
2022/12/28 16:08:50;;;;;;;7.03;4.50;;;;;;;2.50;100.00;100405.00;1682405;83;21611;-65
2022/12/28 16:11:17;;;;;;;7.80;4.80;;;;;;;2.45;100.00;100405.45;1655595;83;21562;-64
2022/12/28 16:13:52;;;;;;;10.38;6.58;;;;;;;2.47;100.00;100402.42;1692317;82;21443;-68
2022/12/28 16:16:20;;;;;;;15.20;9.53;;;;;;;2.43;100.00;100395.91;1671866;82;21878;-69
2022/12/28 16:18:47;;;;;;;15.05;9.43;;;;;;;2.40;100.00;100400.67;1683287;82;22109;-70
2022/12/28 16:21:14;;;;;;;21.42;13.45;;;;;;;2.40;100.00;100401.97;1698053;82;21429;-68
2022/12/28 16:23:42;;;;;;;20.77;13.28;;;;;;;2.42;100.00;100396.78;1684774;83;21565;-64
2022/12/28 16:26:09;;;;;;;16.10;10.75;;;;;;;2.41;100.00;100403.72;1687897;83;21539;-69
2022/12/28 16:28:38;;;;;;;8.73;7.42;;;;;;;2.41;100.00;100408.02;1689191;83;21748;-70
2022/12/28 16:31:05;;;;;;;8.60;6.20;;;;;;;2.41;100.00;100405.42;1686877;84;21820;-66
2022/12/28 16:33:32;;;;;;;9.80;5.87;;;;;;;2.36;100.00;100398.94;1688234;82;21009;-65
2022/12/28 16:35:59;;;;;;;6.83;5.28;;;;;;;2.37;100.00;100405.84;1686821;82;21472;-67
2022/12/28 16:38:27;;;;;;;7.28;5.00;;;;;;;2.37;100.00;100399.80;1680342;82;21483;-67
2022/12/28 16:40:57;;;;;;;8.03;5.33;;;;;;;2.37;100.00;100406.28;1686313;82;21467;-67
2022/12/28 16:43:23;;;;;;;7.72;5.12;;;;;;;2.36;100.00;100403.27;1690287;84;21825;-65
2022/12/28 16:45:50;;;;;;;11.12;6.67;;;;;;;2.36;100.00;100398.94;1691848;82;20986;-68
2022/12/28 16:48:17;;;;;;;8.63;6.40;;;;;;;2.35;100.00;100397.19;1681260;82;22181;-65
2022/12/28 16:50:44;;;;;;;8.20;6.17;;;;;;;2.33;100.00;100398.47;1682202;82;21617;-65
2022/12/28 16:53:10;;;;;;;10.18;5.92;;;;;;;2.31;100.00;100395.02;1688065;82;21673;-69
2022/12/28 16:55:41;;;;;;;10.03;7.40;;;;;;;2.32;100.00;100394.16;1682108;82;22188;-66
2022/12/28 16:58:08;;;;;;;13.88;9.53;;;;;;;2.31;100.00;100388.96;1694815;84;21479;-68
2022/12/28 17:00:35;;;;;;;16.55;10.82;;;;;;;2.26;100.00;100389.37;1678918;83;21058;-68
2022/12/28 17:03:02;;;;;;;14.78;9.60;;;;;;;2.30;100.00;100389.84;1690165;82;21527;-65
2022/12/28 17:05:33;;;;;;;10.72;7.70;;;;;;;2.28;100.00;100398.91;1686790;82;21042;-67
2022/12/28 17:08:03;;;;;;;11.35;6.70;;;;;;;2.25;100.00;100390.25;1684016;82;21771;-67
2022/12/28 17:10:30;;;;;;;10.65;7.12;;;;;;;2.20;100.00;100383.73;1730709;80;21503;-68
2022/12/28 17:12:57;;;;;;;11.93;7.65;;;;;;;2.18;100.00;100380.27;1673418;83;21563;-67
2022/12/28 17:15:23;;;;;;;9.88;6.90;;;;;;;2.15;100.00;100377.69;1738340;82;21490;-66
2022/12/28 17:17:51;;;;;;;22.95;12.55;;;;;;;2.16;100.00;100380.70;1698252;82;21899;-68